Time;durP1;ratioP1;P1;durP2;ratioP2;P2;SDS_P1;SDS_P2;PMS_P1;PMS_P2;Temp;Humidity;BMP_temperature;BMP_pressure;BME280_temperature;BME280_humidity;BME280_pressure;Samples;Min_cycle;Max_cycle;Signal;HPM_P1;HPM_P2
2023/10/07 00:00:27;;;;;;;9.23;5.40;;;9.20;99.90;;;;;;4946844;29;20189;-30
2023/10/07 00:02:59;;;;;;;9.93;5.50;;;9.20;99.90;;;;;;4944147;29;20210;-30
2023/10/07 00:05:31;;;;;;;7.53;4.80;;;9.20;99.90;;;;;;4919066;29;20187;-30
2023/10/07 00:08:01;;;;;;;10.73;5.03;;;9.20;99.90;;;;;;4927715;29;20204;-30
2023/10/07 00:10:31;;;;;;;8.30;4.73;;;9.20;99.90;;;;;;4921712;29;20182;-30
2023/10/07 00:12:57;;;;;;;10.93;5.33;;;9.20;99.90;;;;;;4946637;29;20182;-30
2023/10/07 00:15:28;;;;;;;11.57;5.30;;;9.20;99.90;;;;;;4946321;29;20193;-30
2023/10/07 00:18:06;;;;;;;9.87;5.10;;;9.10;99.90;;;;;;4914270;29;20304;-30
2023/10/07 00:20:33;;;;;;;7.93;4.83;;;9.10;99.90;;;;;;4929660;29;20189;-30
2023/10/07 00:23:01;;;;;;;8.93;5.47;;;9.00;99.90;;;;;;4930045;29;20259;-30
2023/10/07 00:25:30;;;;;;;8.87;5.40;;;8.90;99.90;;;;;;4930258;29;20186;-30
2023/10/07 00:27:59;;;;;;;8.03;5.33;;;8.80;99.90;;;;;;4961156;28;20185;-30
2023/10/07 00:30:30;;;;;;;10.33;5.00;;;8.90;99.90;;;;;;4948407;29;20219;-31
2023/10/07 00:33:21;;;;;;;8.90;5.23;;;8.80;99.90;;;;;;4938576;29;20186;-30
2023/10/07 00:36:05;;;;;;;9.07;5.57;;;8.80;99.90;;;;;;4947392;29;20177;-29
2023/10/07 00:38:46;;;;;;;9.50;5.57;;;8.70;99.90;;;;;;4958177;29;20213;-30
2023/10/07 00:41:18;;;;;;;7.13;5.03;;;8.70;99.90;;;;;;4960438;29;20196;-31
2023/10/07 00:43:44;;;;;;;9.07;4.73;;;8.70;99.90;;;;;;4946668;29;20209;-30
2023/10/07 00:48:47;;;;;;;9.03;5.30;;;8.70;99.90;;;;;;4945154;29;20213;-30
2023/10/07 00:51:17;;;;;;;7.90;4.83;;;8.80;99.90;;;;;;4935027;29;20236;-30
2023/10/07 00:54:00;;;;;;;6.73;4.47;;;8.80;99.90;;;;;;4933219;29;20229;-30
2023/10/07 00:56:33;;;;;;;8.17;5.00;;;8.80;99.90;;;;;;4953425;29;20177;-30
2023/10/07 00:59:07;;;;;;;10.67;4.77;;;8.80;99.90;;;;;;4923109;29;20209;-31
2023/10/07 01:01:37;;;;;;;9.97;5.20;;;8.90;99.90;;;;;;4937268;29;20217;-30
2023/10/07 01:04:06;;;;;;;8.40;5.13;;;8.90;99.90;;;;;;4918083;29;20281;-29
2023/10/07 01:06:32;;;;;;;8.40;4.97;;;8.80;99.90;;;;;;4925583;29;20228;-29
2023/10/07 01:09:10;;;;;;;8.57;5.13;;;8.80;99.90;;;;;;4923627;29;20218;-30
2023/10/07 01:11:40;;;;;;;8.80;4.90;;;8.80;99.90;;;;;;4930254;29;20182;-30
2023/10/07 01:14:10;;;;;;;7.50;5.00;;;8.70;99.90;;;;;;4925314;29;20232;-30
2023/10/07 01:16:42;;;;;;;8.87;4.90;;;8.70;99.90;;;;;;4927302;29;20184;-30
2023/10/07 01:21:55;;;;;;;10.43;5.70;;;8.70;99.90;;;;;;4943101;28;20177;-30
2023/10/07 01:27:05;;;;;;;8.67;5.40;;;8.60;99.90;;;;;;4941302;29;20188;-30
2023/10/07 01:29:32;;;;;;;11.10;5.40;;;8.60;99.90;;;;;;4941469;29;20202;-30
2023/10/07 01:32:11;;;;;;;7.13;4.93;;;8.50;99.90;;;;;;4931474;29;20183;-30
2023/10/07 01:34:37;;;;;;;7.50;4.87;;;8.50;99.90;;;;;;4916881;29;20182;-30
2023/10/07 01:37:05;;;;;;;9.20;5.60;;;8.50;99.90;;;;;;4922769;29;20182;-29
2023/10/07 01:39:40;;;;;;;9.57;5.13;;;8.50;99.90;;;;;;4934336;29;20205;-30
2023/10/07 01:42:12;;;;;;;7.57;4.67;;;8.40;99.90;;;;;;4930064;29;20208;-29
2023/10/07 01:44:40;;;;;;;6.73;4.27;;;8.40;99.90;;;;;;4944683;29;20213;-29
2023/10/07 01:47:17;;;;;;;7.40;4.47;;;8.40;99.90;;;;;;4927827;29;20177;-30
2023/10/07 01:49:43;;;;;;;9.60;4.90;;;8.30;99.90;;;;;;4935457;29;20259;-30
2023/10/07 01:52:09;;;;;;;9.27;5.17;;;8.30;99.90;;;;;;4929086;29;20198;-30
2023/10/07 01:54:36;;;;;;;8.63;4.90;;;8.20;99.90;;;;;;4925312;29;20184;-30
2023/10/07 01:57:05;;;;;;;6.97;5.00;;;8.20;99.90;;;;;;4948328;29;20189;-30
2023/10/07 01:59:31;;;;;;;8.97;5.10;;;8.10;99.90;;;;;;4920677;29;20217;-30
2023/10/07 02:02:04;;;;;;;9.33;5.50;;;8.10;99.90;;;;;;4932666;29;20192;-30
2023/10/07 02:04:30;;;;;;;8.07;4.83;;;8.10;99.90;;;;;;4917300;29;20211;-29
2023/10/07 02:06:57;;;;;;;8.23;4.93;;;8.10;99.90;;;;;;4925331;29;20246;-29
2023/10/07 02:09:27;;;;;;;9.50;5.37;;;8.00;99.90;;;;;;5172998;23;20225;-28
2023/10/07 02:12:00;;;;;;;7.03;4.80;;;8.00;99.90;;;;;;4966644;28;20232;-27
2023/10/07 02:14:27;;;;;;;8.17;4.93;;;7.90;99.90;;;;;;4959036;28;20236;-27
2023/10/07 02:16:59;;;;;;;7.00;4.70;;;7.80;99.90;;;;;;4957858;28;20196;-28
2023/10/07 02:19:28;;;;;;;8.67;4.80;;;7.70;99.90;;;;;;4929922;29;20292;-27
2023/10/07 02:21:59;;;;;;;8.77;5.30;;;7.60;99.90;;;;;;4934538;29;20184;-28
2023/10/07 02:24:29;;;;;;;7.70;5.23;;;7.60;99.90;;;;;;4926292;29;20193;-28
2023/10/07 02:27:06;;;;;;;8.83;4.77;;;7.50;99.90;;;;;;4925740;29;20188;-27
2023/10/07 02:29:34;;;;;;;8.80;4.80;;;7.50;99.90;;;;;;4941679;29;20212;-28
2023/10/07 02:32:34;;;;;;;8.77;5.27;;;7.60;99.90;;;;;;4944155;29;20646;-27
2023/10/07 02:34:53;;;;;;;8.93;4.93;;;7.60;99.90;;;;;;4949567;28;20719;-27
2023/10/07 02:37:21;;;;;;;10.73;5.10;;;7.50;99.90;;;;;;4934766;29;20185;-27
2023/10/07 02:39:48;;;;;;;9.37;4.70;;;7.40;99.90;;;;;;4925123;29;20224;-27
2023/10/07 02:42:28;;;;;;;8.10;5.63;;;7.40;99.90;;;;;;4931095;29;20205;-28
2023/10/07 02:45:11;;;;;;;10.37;6.10;;;7.40;99.90;;;;;;4937511;29;20280;-28
2023/10/07 02:47:37;;;;;;;8.50;6.03;;;7.20;99.90;;;;;;4920947;29;20189;-27
2023/10/07 02:50:08;;;;;;;9.27;6.13;;;7.10;99.90;;;;;;4947376;28;20196;-27
2023/10/07 02:52:37;;;;;;;10.23;6.60;;;7.10;99.90;;;;;;4932675;29;20193;-28
2023/10/07 02:57:39;;;;;;;9.10;5.87;;;7.00;99.90;;;;;;4945271;29;20182;-28
2023/10/07 03:00:29;;;;;;;9.23;5.63;;;7.10;99.90;;;;;;4916859;29;20218;-28
2023/10/07 03:03:09;;;;;;;10.27;5.73;;;7.20;99.90;;;;;;4952768;28;20239;-28
2023/10/07 03:05:45;;;;;;;10.80;6.00;;;7.30;99.90;;;;;;4928217;29;20187;-27
2023/10/07 03:08:20;;;;;;;10.90;6.60;;;7.30;99.90;;;;;;4922229;29;20196;-27
2023/10/07 03:11:09;;;;;;;9.73;6.40;;;7.30;99.90;;;;;;4930011;29;20196;-27
2023/10/07 03:13:37;;;;;;;10.30;5.80;;;7.40;99.90;;;;;;4941278;29;20193;-27
2023/10/07 03:16:28;;;;;;;8.17;5.47;;;7.40;99.90;;;;;;4945153;29;20188;-27
2023/10/07 03:21:55;;;;;;;8.53;5.27;;;7.40;99.90;;;;;;4948360;28;20192;-28
2023/10/07 03:24:48;;;;;;;9.10;5.80;;;7.40;99.90;;;;;;4949859;29;20200;-28
2023/10/07 03:27:25;;;;;;;9.87;5.10;;;7.40;99.90;;;;;;4948250;29;20189;-27
2023/10/07 03:30:12;;;;;;;9.00;4.97;;;7.40;99.90;;;;;;4932775;29;20216;-28
2023/10/07 03:35:59;;;;;;;8.93;5.40;;;7.30;99.90;;;;;;4941428;28;20290;-28
2023/10/07 03:38:26;;;;;;;9.00;5.63;;;7.30;99.90;;;;;;4949951;29;20220;-28
2023/10/07 03:40:58;;;;;;;9.70;5.40;;;7.20;99.90;;;;;;4935455;29;20326;-27
2023/10/07 03:43:28;;;;;;;9.87;6.00;;;7.10;99.90;;;;;;4934545;29;20216;-27
2023/10/07 03:45:55;;;;;;;7.03;5.10;;;7.00;99.90;;;;;;4925116;29;20179;-27
2023/10/07 03:48:24;;;;;;;7.40;4.97;;;6.90;99.90;;;;;;4927489;29;20209;-28
2023/10/07 03:51:05;;;;;;;9.93;5.53;;;6.80;99.90;;;;;;4951451;29;20188;-27
2023/10/07 03:53:47;;;;;;;7.53;4.80;;;6.90;99.90;;;;;;4937486;29;20235;-27
2023/10/07 03:56:16;;;;;;;8.77;5.40;;;6.80;99.90;;;;;;4935330;29;20220;-28
2023/10/07 03:58:43;;;;;;;7.33;5.43;;;6.80;99.90;;;;;;4964394;28;20213;-27
2023/10/07 04:01:22;;;;;;;8.33;5.10;;;6.80;99.90;;;;;;4935543;29;20201;-29
2023/10/07 04:03:52;;;;;;;8.17;5.20;;;6.80;99.90;;;;;;4918020;29;20244;-27
2023/10/07 04:06:19;;;;;;;7.33;5.03;;;6.80;99.90;;;;;;4934826;29;20189;-27
2023/10/07 04:08:52;;;;;;;8.63;4.90;;;6.80;99.90;;;;;;4919688;29;20295;-27
2023/10/07 04:11:25;;;;;;;11.70;5.10;;;6.80;99.90;;;;;;4930164;29;20197;-27
2023/10/07 04:13:55;;;;;;;10.43;5.33;;;6.70;99.90;;;;;;4925510;29;20267;-28
2023/10/07 04:16:23;;;;;;;7.93;4.57;;;6.70;99.90;;;;;;4936794;29;20199;-27
2023/10/07 04:19:06;;;;;;;8.60;5.50;;;6.80;99.90;;;;;;4917980;29;20330;-28
2023/10/07 04:21:39;;;;;;;8.77;5.10;;;6.80;99.90;;;;;;4922519;29;20285;-28
2023/10/07 04:24:09;;;;;;;8.60;4.67;;;6.90;99.90;;;;;;4937206;29;20212;-28
2023/10/07 04:26:39;;;;;;;10.73;5.40;;;7.00;99.90;;;;;;4922053;29;20189;-27
2023/10/07 04:29:16;;;;;;;7.70;4.80;;;7.10;99.90;;;;;;4920537;29;20265;-28
2023/10/07 04:31:57;;;;;;;7.43;4.90;;;7.10;99.90;;;;;;4943873;29;20192;-27
2023/10/07 04:34:26;;;;;;;7.47;4.53;;;7.10;99.90;;;;;;4917814;29;20203;-27
2023/10/07 04:39:38;;;;;;;10.57;5.07;;;7.20;99.90;;;;;;4950440;28;20218;-28
2023/10/07 04:42:06;;;;;;;9.37;5.03;;;7.10;99.90;;;;;;4942318;29;20192;-28
2023/10/07 04:47:29;;;;;;;10.30;5.30;;;7.00;99.90;;;;;;4940603;29;20189;-28
2023/10/07 04:50:05;;;;;;;8.23;4.80;;;6.90;99.90;;;;;;4935344;29;20201;-27
2023/10/07 04:52:31;;;;;;;9.60;5.77;;;6.90;99.90;;;;;;4931054;29;20188;-27
2023/10/07 04:54:58;;;;;;;8.13;5.10;;;6.80;99.90;;;;;;4932385;29;20186;-27
2023/10/07 04:58:12;;;;;;;6.90;4.77;;;6.80;99.90;;;;;;4950475;29;20580;-28
2023/10/07 05:03:08;;;;;;;10.07;5.97;;;6.80;99.90;;;;;;4943833;29;20220;-28
2023/10/07 05:05:34;;;;;;;8.73;5.37;;;6.70;99.90;;;;;;4926032;29;20194;-28
2023/10/07 05:11:04;;;;;;;9.63;4.93;;;6.70;99.90;;;;;;4938921;29;20207;-28
2023/10/07 05:13:35;;;;;;;8.40;4.70;;;6.70;99.90;;;;;;4932291;29;20189;-27
2023/10/07 05:16:08;;;;;;;9.17;4.50;;;6.60;99.90;;;;;;4947817;29;20205;-28
2023/10/07 05:18:33;;;;;;;8.20;4.83;;;6.50;99.90;;;;;;4941235;29;20239;-28
2023/10/07 05:20:59;;;;;;;8.97;4.73;;;6.60;99.90;;;;;;4931484;29;20189;-28
2023/10/07 05:23:26;;;;;;;9.47;4.83;;;6.50;99.90;;;;;;4935088;29;20738;-27
2023/10/07 05:25:53;;;;;;;8.63;4.73;;;6.20;99.90;;;;;;4928813;29;20185;-27
2023/10/07 05:28:21;;;;;;;7.93;4.70;;;6.00;99.90;;;;;;4926418;29;20308;-27
2023/10/07 05:30:52;;;;;;;6.93;4.67;;;5.90;99.90;;;;;;4943151;29;20192;-28
2023/10/07 05:33:25;;;;;;;7.80;4.90;;;5.90;99.90;;;;;;4942848;29;20194;-28
2023/10/07 05:36:13;;;;;;;8.60;5.53;;;5.90;99.90;;;;;;4941736;29;20190;-27
2023/10/07 05:38:47;;;;;;;7.87;4.80;;;5.80;99.90;;;;;;4932374;29;20205;-26
2023/10/07 05:41:15;;;;;;;9.20;5.20;;;5.80;99.90;;;;;;4928531;29;20191;-28
2023/10/07 05:43:48;;;;;;;8.40;5.20;;;5.80;99.90;;;;;;4933763;29;20215;-27
2023/10/07 05:46:19;;;;;;;6.70;4.70;;;5.80;99.90;;;;;;4928427;29;20236;-28
2023/10/07 05:48:46;;;;;;;8.67;4.80;;;5.70;99.90;;;;;;4934008;29;20690;-28
2023/10/07 05:51:12;;;;;;;8.20;5.13;;;5.70;99.90;;;;;;4934303;29;20210;-28
2023/10/07 05:53:45;;;;;;;6.90;4.87;;;5.80;99.90;;;;;;4934861;29;20190;-29
2023/10/07 05:56:11;;;;;;;7.80;4.80;;;5.90;99.90;;;;;;4930675;29;20225;-26
2023/10/07 05:58:38;;;;;;;8.17;5.03;;;6.10;99.90;;;;;;4934061;29;20210;-27
2023/10/07 06:01:05;;;;;;;9.37;4.83;;;6.20;99.90;;;;;;4933346;29;20242;-28
2023/10/07 06:03:32;;;;;;;7.70;4.80;;;6.40;99.90;;;;;;4929361;29;20269;-27
2023/10/07 06:05:59;;;;;;;8.53;5.17;;;6.40;99.90;;;;;;4920372;29;20182;-28
2023/10/07 06:08:26;;;;;;;6.53;5.20;;;6.50;99.90;;;;;;4936090;29;20204;-28
2023/10/07 06:10:54;;;;;;;9.10;5.33;;;6.60;99.90;;;;;;4933055;29;20247;-28
2023/10/07 06:13:20;;;;;;;13.67;8.60;;;6.70;99.90;;;;;;4932972;29;20202;-28
2023/10/07 06:15:46;;;;;;;15.07;7.37;;;6.80;99.90;;;;;;4942460;29;20274;-28
2023/10/07 06:18:12;;;;;;;8.83;6.27;;;6.80;99.90;;;;;;4933308;29;20223;-27
2023/10/07 06:20:38;;;;;;;12.03;6.30;;;6.90;99.90;;;;;;4945572;29;20185;-28
2023/10/07 06:23:14;;;;;;;9.23;5.10;;;7.00;99.90;;;;;;4942704;29;20217;-28
2023/10/07 06:25:50;;;;;;;9.60;5.40;;;7.10;99.90;;;;;;4926941;29;20243;-27
2023/10/07 06:28:32;;;;;;;11.47;8.33;;;7.10;99.90;;;;;;4925093;29;20259;-28
2023/10/07 06:31:11;;;;;;;13.37;9.00;;;7.20;99.90;;;;;;4933732;29;20214;-27
2023/10/07 06:33:41;;;;;;;10.83;7.40;;;7.20;99.90;;;;;;4942464;29;20177;-28
2023/10/07 06:36:10;;;;;;;11.23;7.03;;;7.30;99.90;;;;;;4937871;29;20661;-27
2023/10/07 06:38:52;;;;;;;10.20;6.87;;;7.30;99.90;;;;;;4943636;29;20211;-27
2023/10/07 06:41:19;;;;;;;11.17;8.30;;;7.40;99.90;;;;;;4929627;29;20191;-27
2023/10/07 06:43:50;;;;;;;13.17;9.43;;;7.50;99.90;;;;;;4947936;29;20352;-28
2023/10/07 06:46:20;;;;;;;11.23;7.97;;;7.50;99.90;;;;;;4932869;29;20192;-27
2023/10/07 06:48:50;;;;;;;9.83;7.20;;;7.50;99.90;;;;;;4934913;29;20205;-28
2023/10/07 06:51:16;;;;;;;11.90;7.60;;;7.60;99.90;;;;;;4927893;29;20201;-28
2023/10/07 06:53:42;;;;;;;9.87;6.57;;;7.70;99.90;;;;;;4951532;29;20180;-27
2023/10/07 06:56:21;;;;;;;7.97;6.17;;;7.80;99.90;;;;;;4935403;29;20264;-27
2023/10/07 06:58:54;;;;;;;11.03;7.33;;;7.90;99.90;;;;;;4951489;29;20203;-28
2023/10/07 07:04:14;;;;;;;9.47;6.70;;;8.10;99.90;;;;;;4933275;28;20217;-28
2023/10/07 07:07:11;;;;;;;8.90;6.13;;;8.10;99.90;;;;;;4935283;29;20189;-29
2023/10/07 07:12:18;;;;;;;9.07;5.90;;;8.50;99.90;;;;;;4932939;29;20190;-31
2023/10/07 07:14:51;;;;;;;7.23;5.87;;;8.60;99.90;;;;;;4915601;29;20186;-30
2023/10/07 07:17:30;;;;;;;7.33;4.93;;;8.70;99.90;;;;;;4942657;29;20193;-29
2023/10/07 07:22:42;;;;;;;7.13;4.13;;;9.10;99.90;;;;;;4948571;28;20210;-30
2023/10/07 07:25:12;;;;;;;7.37;4.03;;;9.30;99.90;;;;;;4929561;29;20186;-31
2023/10/07 07:27:52;;;;;;;6.97;4.13;;;9.40;99.90;;;;;;4939031;29;20253;-30
2023/10/07 07:30:19;;;;;;;10.70;4.70;;;9.60;99.90;;;;;;4933594;29;20182;-30
2023/10/07 07:32:55;;;;;;;9.30;4.50;;;9.80;99.90;;;;;;4925732;29;20185;-29
2023/10/07 07:35:45;;;;;;;10.17;4.67;;;10.00;99.90;;;;;;4919372;29;20204;-31
2023/10/07 07:38:18;;;;;;;8.83;4.50;;;10.20;99.90;;;;;;4937605;29;20185;-31
2023/10/07 07:40:44;;;;;;;6.87;4.20;;;10.40;99.90;;;;;;4924655;29;20186;-30
2023/10/07 07:43:13;;;;;;;8.20;4.53;;;10.50;99.90;;;;;;4914903;29;20228;-30
2023/10/07 07:45:40;;;;;;;9.73;4.53;;;10.70;99.90;;;;;;4936649;29;20177;-31
2023/10/07 07:48:07;;;;;;;8.07;4.67;;;10.90;99.90;;;;;;4936429;29;20193;-31
2023/10/07 07:50:39;;;;;;;8.57;4.90;;;11.10;99.90;;;;;;4948960;29;20278;-31
2023/10/07 07:53:12;;;;;;;6.10;4.20;;;11.30;99.90;;;;;;4934103;29;20203;-30
2023/10/07 07:55:43;;;;;;;10.30;4.23;;;11.50;99.90;;;;;;4949280;29;20219;-32
2023/10/07 07:58:13;;;;;;;6.27;4.30;;;11.70;99.90;;;;;;4936636;29;20198;-29
2023/10/07 08:00:45;;;;;;;7.50;4.50;;;11.90;99.90;;;;;;4931415;29;20199;-31
2023/10/07 08:03:12;;;;;;;7.40;4.33;;;12.00;99.90;;;;;;4931837;29;20205;-30
2023/10/07 08:05:42;;;;;;;8.90;3.97;;;12.20;99.90;;;;;;4915831;29;20217;-29
2023/10/07 08:08:18;;;;;;;6.77;4.30;;;12.30;99.90;;;;;;4935975;29;20195;-30
2023/10/07 08:10:48;;;;;;;6.40;4.40;;;12.60;99.90;;;;;;4956950;23;20255;-30
2023/10/07 08:13:23;;;;;;;5.40;4.27;;;12.80;99.90;;;;;;4950486;28;20271;-30
2023/10/07 08:15:52;;;;;;;5.93;4.13;;;13.00;99.90;;;;;;4936381;29;20192;-31
2023/10/07 08:18:22;;;;;;;8.00;4.33;;;13.30;99.90;;;;;;4939270;28;20264;-30
2023/10/07 08:20:56;;;;;;;7.57;4.03;;;13.50;99.90;;;;;;4941845;29;20205;-31
2023/10/07 08:23:29;;;;;;;7.63;4.37;;;13.80;99.90;;;;;;4928049;28;20210;-31
2023/10/07 08:26:09;;;;;;;5.50;4.03;;;13.90;99.90;;;;;;4944067;28;20185;-31
2023/10/07 08:28:42;;;;;;;9.83;4.60;;;14.10;99.90;;;;;;4936115;29;20192;-31
2023/10/07 08:31:14;;;;;;;6.80;4.20;;;14.30;99.90;;;;;;4936742;28;20189;-31
2023/10/07 08:33:40;;;;;;;8.57;4.30;;;14.50;99.90;;;;;;4936768;29;20183;-31
2023/10/07 08:36:07;;;;;;;7.63;4.43;;;14.60;99.90;;;;;;4932040;28;20197;-31
2023/10/07 08:38:50;;;;;;;8.53;3.87;;;14.70;99.90;;;;;;4936157;29;20181;-31
2023/10/07 08:41:16;;;;;;;7.37;3.70;;;14.80;99.90;;;;;;4930863;28;20291;-31
2023/10/07 08:43:45;;;;;;;5.60;3.77;;;14.90;99.90;;;;;;4970106;28;20220;-31
2023/10/07 08:46:19;;;;;;;6.70;4.20;;;15.00;99.90;;;;;;4958691;28;20185;-31
2023/10/07 08:48:56;;;;;;;7.17;4.27;;;15.20;99.90;;;;;;4944844;28;20641;-31
2023/10/07 08:51:24;;;;;;;9.23;4.40;;;15.30;99.90;;;;;;4955196;28;20180;-31
2023/10/07 08:54:05;;;;;;;7.13;4.53;;;15.40;99.90;;;;;;4956532;28;20189;-31
2023/10/07 08:56:35;;;;;;;5.70;3.70;;;15.50;99.90;;;;;;4972396;28;20210;-31
2023/10/07 08:59:06;;;;;;;10.17;3.63;;;15.60;99.90;;;;;;4971904;28;20208;-31
2023/10/07 09:01:34;;;;;;;6.33;4.00;;;15.80;99.90;;;;;;4955859;28;20239;-31
2023/10/07 09:04:07;;;;;;;5.27;3.47;;;15.90;99.90;;;;;;4947130;28;20213;-32
2023/10/07 09:06:36;;;;;;;8.17;3.70;;;16.10;99.90;;;;;;4941437;28;20626;-32
2023/10/07 09:09:06;;;;;;;7.27;3.80;;;16.20;99.90;;;;;;4971082;28;20204;-32
2023/10/07 09:11:36;;;;;;;6.87;3.97;;;16.40;99.90;;;;;;4955932;28;20184;-31
2023/10/07 09:14:18;;;;;;;6.10;3.97;;;16.60;99.90;;;;;;4954838;28;20236;-32
2023/10/07 09:16:44;;;;;;;5.45;3.38;;;16.90;99.90;;;;;;4948666;28;20191;-32
2023/10/07 09:19:15;;;;;;;6.03;3.92;;;17.10;99.90;;;;;;4955786;28;20208;-32
2023/10/07 09:21:44;;;;;;;5.80;3.53;;;17.30;99.90;;;;;;4955748;28;20177;-31
2023/10/07 09:24:26;;;;;;;5.93;3.88;;;17.50;99.90;;;;;;4955604;28;20303;-31
2023/10/07 09:26:59;;;;;;;7.28;3.95;;;17.60;99.90;;;;;;4971781;28;20188;-31
2023/10/07 09:29:26;;;;;;;8.05;4.32;;;17.70;99.90;;;;;;4940895;28;20205;-31
2023/10/07 09:32:04;;;;;;;5.75;3.47;;;17.80;99.90;;;;;;4951974;28;20184;-30
2023/10/07 09:34:32;;;;;;;8.48;3.55;;;17.90;99.90;;;;;;4947443;29;20186;-31
2023/10/07 09:36:58;;;;;;;5.18;3.40;;;17.90;99.90;;;;;;4947322;28;20188;-31
2023/10/07 09:39:44;;;;;;;4.93;3.50;;;18.00;99.90;;;;;;4955465;28;20196;-31
2023/10/07 09:42:56;;;;;;;7.03;3.70;;;18.10;99.90;;;;;;4955388;28;20263;-31
2023/10/07 09:45:16;;;;;;;5.30;3.30;;;18.30;99.90;;;;;;4948230;28;20184;-31
2023/10/07 09:47:44;;;;;;;6.90;4.68;;;18.50;99.90;;;;;;4955295;28;20220;-31
2023/10/07 09:50:25;;;;;;;7.57;3.38;;;18.60;99.90;;;;;;4954419;28;20204;-31
2023/10/07 09:53:17;;;;;;;7.72;3.65;;;18.60;99.90;;;;;;4954210;28;20180;-31
2023/10/07 09:56:11;;;;;;;6.20;3.28;;;18.70;99.90;;;;;;4955309;28;20185;-31
2023/10/07 09:58:59;;;;;;;6.28;3.08;;;18.80;99.90;;;;;;4955377;28;20180;-31
2023/10/07 10:01:51;;;;;;;6.13;3.40;;;18.70;99.90;;;;;;4971283;28;20177;-31
2023/10/07 10:05:05;;;;;;;6.68;3.53;;;18.70;99.90;;;;;;4938578;28;20222;-31
2023/10/07 10:07:54;;;;;;;4.93;3.10;;;18.70;99.90;;;;;;4945232;28;20181;-31
2023/10/07 10:10:30;;;;;;;5.82;3.42;;;18.70;99.90;;;;;;4920016;28;20225;-31
2023/10/07 10:21:04;;;;;;;7.03;3.45;;;18.80;99.90;;;;;;4883789;28;20199;-31
2023/10/07 10:23:33;;;;;;;5.93;3.33;;;18.90;99.90;;;;;;4919592;29;20212;-31
2023/10/07 10:26:14;;;;;;;5.32;3.20;;;19.10;99.90;;;;;;4931033;28;20185;-31
2023/10/07 10:28:59;;;;;;;4.57;2.90;;;19.20;99.90;;;;;;4926254;28;20259;-31
2023/10/07 10:31:32;;;;;;;6.18;3.20;;;19.20;99.90;;;;;;4921566;28;20186;-31
2023/10/07 10:34:04;;;;;;;7.82;3.33;;;19.50;99.90;;;;;;4923425;28;20233;-31
2023/10/07 10:36:55;;;;;;;8.35;3.58;;;19.60;99.90;;;;;;4957217;28;20194;-31
2023/10/07 10:39:31;;;;;;;7.38;3.22;;;19.60;99.90;;;;;;4940905;28;20209;-31
2023/10/07 10:42:13;;;;;;;4.75;3.28;;;19.60;99.90;;;;;;4961111;28;20196;-30
2023/10/07 10:44:46;;;;;;;4.70;3.08;;;19.70;99.90;;;;;;4960288;28;20210;-31
2023/10/07 10:47:21;;;;;;;6.45;3.30;;;19.80;99.90;;;;;;4961216;28;20268;-31
2023/10/07 10:49:54;;;;;;;6.93;3.42;;;19.70;99.90;;;;;;4947993;28;20780;-30
2023/10/07 10:52:50;;;;;;;5.93;3.20;;;19.80;99.90;;;;;;4951596;28;20215;-31
2023/10/07 10:55:35;;;;;;;5.75;3.17;;;19.80;99.90;;;;;;4953878;28;20223;-31
2023/10/07 10:58:18;;;;;;;5.47;3.53;;;19.80;99.90;;;;;;4967639;28;20243;-31
2023/10/07 11:00:54;;;;;;;5.97;3.22;;;19.80;99.90;;;;;;4949069;28;20200;-31
2023/10/07 11:03:23;;;;;;;6.13;2.83;;;19.70;99.90;;;;;;4951759;28;20205;-31
2023/10/07 11:05:56;;;;;;;6.07;3.13;;;19.70;99.90;;;;;;4946168;28;20180;-31
2023/10/07 11:08:23;;;;;;;3.63;2.75;;;19.70;99.90;;;;;;4963069;28;20177;-31
2023/10/07 11:10:52;;;;;;;4.88;3.20;;;19.70;99.90;;;;;;4960700;28;20263;-31
2023/10/07 11:13:20;;;;;;;4.93;3.00;;;19.80;99.90;;;;;;4949428;28;20184;-32
2023/10/07 11:16:11;;;;;;;6.72;2.90;;;19.80;99.90;;;;;;4928742;28;20190;-31
2023/10/07 11:18:41;;;;;;;3.92;2.70;;;19.90;99.90;;;;;;4961064;28;20717;-31
2023/10/07 11:21:18;;;;;;;5.35;3.03;;;19.80;99.90;;;;;;4962791;28;20184;-30
2023/10/07 11:23:54;;;;;;;4.47;3.10;;;19.90;99.90;;;;;;4937456;29;20210;-31
2023/10/07 11:26:26;;;;;;;5.13;2.60;;;20.00;99.90;;;;;;4934238;28;20323;-31
2023/10/07 11:28:55;;;;;;;4.93;2.83;;;20.10;99.90;;;;;;4941877;29;20181;-31
2023/10/07 11:31:30;;;;;;;6.32;3.22;;;20.30;99.90;;;;;;4968148;28;20219;-31
2023/10/07 11:33:57;;;;;;;4.45;3.03;;;20.50;99.90;;;;;;4942907;28;20181;-31
2023/10/07 11:36:23;;;;;;;6.05;3.35;;;20.70;99.90;;;;;;4944917;28;20188;-31
2023/10/07 11:38:50;;;;;;;7.18;2.50;;;20.70;99.90;;;;;;4942629;28;20189;-31
2023/10/07 11:41:16;;;;;;;6.40;2.67;;;20.80;99.90;;;;;;4955358;28;20185;-31
2023/10/07 11:43:47;;;;;;;4.63;2.72;;;20.90;99.90;;;;;;4945253;28;20213;-31
2023/10/07 11:46:13;;;;;;;4.68;2.88;;;21.10;99.90;;;;;;4933761;28;20186;-31
2023/10/07 11:48:48;;;;;;;5.30;2.78;;;21.20;99.90;;;;;;4934067;28;20173;-31
2023/10/07 11:51:14;;;;;;;4.20;2.60;;;21.20;99.90;;;;;;4954267;28;20217;-31
2023/10/07 11:53:41;;;;;;;3.92;2.83;;;21.20;99.90;;;;;;4954553;28;20301;-30
2023/10/07 11:56:11;;;;;;;3.88;2.60;;;21.30;99.90;;;;;;4937712;28;20197;-31
2023/10/07 11:58:38;;;;;;;5.25;2.63;;;21.30;99.90;;;;;;4959892;28;20191;-31
2023/10/07 12:01:04;;;;;;;4.57;2.78;;;21.20;99.90;;;;;;4943990;28;20193;-31
2023/10/07 12:03:32;;;;;;;4.97;3.17;;;21.10;99.90;;;;;;4938009;29;20209;-31
2023/10/07 12:05:58;;;;;;;4.72;3.20;;;21.00;99.90;;;;;;4920067;28;20186;-31
2023/10/07 12:08:25;;;;;;;4.68;2.70;;;21.00;99.90;;;;;;4934207;28;20183;-32
2023/10/07 12:10:51;;;;;;;6.07;2.83;;;21.00;99.90;;;;;;4938725;29;20216;-32
2023/10/07 12:13:19;;;;;;;3.33;2.45;;;21.00;99.90;;;;;;4937174;28;20222;-32
2023/10/07 12:15:46;;;;;;;5.18;2.90;;;21.10;99.90;;;;;;4938372;28;20188;-32
2023/10/07 12:18:19;;;;;;;6.97;3.30;;;21.10;99.90;;;;;;4935789;28;20204;-32
2023/10/07 12:20:45;;;;;;;4.80;2.97;;;21.10;99.90;;;;;;4914009;29;20264;-32
2023/10/07 12:23:11;;;;;;;5.72;3.05;;;21.20;99.90;;;;;;4933452;28;20205;-32
2023/10/07 12:25:37;;;;;;;4.53;2.65;;;21.30;99.90;;;;;;4917482;29;20297;-32
2023/10/07 12:28:05;;;;;;;4.78;2.60;;;21.20;99.90;;;;;;4937087;29;20357;-32
2023/10/07 12:30:35;;;;;;;6.05;3.05;;;21.20;99.90;;;;;;4948274;28;20258;-32
2023/10/07 12:33:04;;;;;;;5.63;3.22;;;21.10;99.90;;;;;;4949056;28;20186;-32
2023/10/07 12:35:31;;;;;;;5.85;3.00;;;21.10;99.90;;;;;;4947065;28;20249;-32
2023/10/07 12:37:59;;;;;;;4.75;2.88;;;21.20;99.90;;;;;;4933676;29;20196;-32
2023/10/07 12:40:28;;;;;;;5.20;2.95;;;21.30;99.90;;;;;;4931618;28;20220;-32
2023/10/07 12:42:56;;;;;;;5.03;3.47;;;21.30;99.90;;;;;;4935887;29;20304;-31
2023/10/07 12:45:22;;;;;;;4.40;2.75;;;21.30;99.90;;;;;;4939611;28;20182;-31
2023/10/07 12:47:55;;;;;;;5.43;2.97;;;21.40;99.90;;;;;;4935043;29;20184;-31
2023/10/07 12:50:27;;;;;;;6.60;3.78;;;21.50;99.90;;;;;;4936366;28;20205;-31
2023/10/07 12:52:57;;;;;;;6.13;2.90;;;21.60;99.90;;;;;;4932345;29;20185;-31
2023/10/07 12:55:34;;;;;;;4.97;3.00;;;21.70;99.90;;;;;;4932857;28;20205;-31
2023/10/07 12:58:09;;;;;;;4.45;2.90;;;21.80;99.90;;;;;;4947863;28;20256;-31
2023/10/07 13:00:36;;;;;;;4.30;3.00;;;21.80;99.90;;;;;;4933234;29;20228;-31
2023/10/07 13:03:05;;;;;;;4.82;2.90;;;21.80;99.90;;;;;;4930498;29;20208;-32
2023/10/07 13:05:37;;;;;;;5.07;3.03;;;21.80;99.90;;;;;;4921210;28;20181;-32
2023/10/07 13:08:15;;;;;;;6.05;3.10;;;21.80;99.90;;;;;;4912883;29;20202;-32
2023/10/07 13:10:42;;;;;;;4.50;2.80;;;21.80;99.90;;;;;;4932625;29;20208;-32
2023/10/07 13:13:08;;;;;;;3.72;2.60;;;21.80;99.90;;;;;;4916104;28;20189;-32
2023/10/07 13:15:35;;;;;;;4.35;2.78;;;21.90;99.90;;;;;;4948722;28;20225;-32
2023/10/07 13:18:02;;;;;;;3.70;2.75;;;21.90;99.90;;;;;;4929610;29;20193;-32
2023/10/07 13:20:29;;;;;;;3.85;2.50;;;21.90;99.90;;;;;;4929414;28;20216;-31
2023/10/07 13:23:06;;;;;;;4.63;2.72;;;21.90;99.90;;;;;;4934093;29;20209;-31
2023/10/07 13:25:35;;;;;;;4.40;3.00;;;21.80;99.90;;;;;;4952430;28;20176;-31
2023/10/07 13:28:02;;;;;;;4.95;3.15;;;22.00;99.90;;;;;;4964404;28;20212;-31
2023/10/07 13:30:30;;;;;;;5.70;3.42;;;22.00;99.90;;;;;;4956924;28;20198;-31
2023/10/07 13:32:57;;;;;;;5.55;2.88;;;22.20;99.90;;;;;;4962794;28;20188;-31
2023/10/07 13:35:25;;;;;;;6.15;3.40;;;22.20;99.90;;;;;;4947315;28;20220;-31
2023/10/07 13:37:54;;;;;;;4.60;3.30;;;22.10;99.90;;;;;;4933562;29;20189;-31
2023/10/07 13:40:21;;;;;;;5.07;2.60;;;22.20;99.90;;;;;;4953632;28;20768;-31
2023/10/07 13:42:49;;;;;;;3.50;2.58;;;22.10;99.90;;;;;;4941460;29;20209;-31
2023/10/07 13:45:18;;;;;;;4.32;2.72;;;22.20;99.90;;;;;;4925711;28;20210;-31
2023/10/07 13:47:44;;;;;;;6.03;2.85;;;22.40;99.90;;;;;;4927208;29;20212;-31
2023/10/07 13:50:14;;;;;;;4.05;2.78;;;22.60;99.90;;;;;;4943423;28;20205;-32
2023/10/07 13:52:51;;;;;;;3.97;2.38;;;22.80;99.90;;;;;;4932757;29;20244;-32
2023/10/07 13:55:22;;;;;;;5.82;3.20;;;23.00;99.90;;;;;;4916498;28;20665;-32
2023/10/07 13:57:56;;;;;;;5.13;3.22;;;23.00;99.90;;;;;;4915966;29;20193;-31
2023/10/07 14:00:35;;;;;;;4.47;2.97;;;23.00;99.90;;;;;;4947515;28;20209;-31